THY1LR LTFM-LWSK
Flight info
| Callsign | THY1LR |
|---|---|
| Flight time | 1h 0m |
| Altitude | 36000 |
| Route | VADEN1G/17R VADEN N618 BAKLO DCT LETNI DCT SIN |
| Aircraft | A21N/M-SDE3FGHIRWY/LB1 |
Departure
| Time | 2026-04-26 11:18 |
|---|---|
| Airport | İstanbul Airport (LTFM) |
Arrival
| Time | 2026-04-26 12:18 |
|---|---|
| Airport | Skopje International Airport (LWSK) |
| Time | Latitude | Longitude | Altitude | Speed | Heading |
|---|---|---|---|---|---|
| 2026-04-26 10:38 | 41.26370 | 28.74119 | 297 ft | 0 kts | 111° |
| 2026-04-26 11:03 | 41.26374 | 28.74104 | 298 ft | 3 kts | 111° |
| 2026-04-26 11:03 | 41.26384 | 28.74070 | 298 ft | 3 kts | 112° |
| 2026-04-26 11:03 | 41.26394 | 28.74038 | 298 ft | 3 kts | 112° |
| 2026-04-26 11:03 | 41.26403 | 28.74005 | 298 ft | 2 kts | 112° |
| 2026-04-26 11:04 | 41.26404 | 28.74003 | 298 ft | 0 kts | 112° |
| 2026-04-26 11:07 | 41.26404 | 28.74005 | 297 ft | 0 kts | 112° |
| 2026-04-26 11:07 | 41.26403 | 28.74013 | 297 ft | 0 kts | 78° |
| 2026-04-26 11:07 | 41.26418 | 28.74024 | 297 ft | 3 kts | 21° |
| 2026-04-26 11:08 | 41.26453 | 28.74029 | 297 ft | 6 kts | 2° |
| 2026-04-26 11:08 | 41.26506 | 28.74030 | 297 ft | 8 kts | 358° |
| 2026-04-26 11:08 | 41.26575 | 28.74024 | 297 ft | 11 kts | 357° |
| 2026-04-26 11:08 | 41.26660 | 28.74021 | 297 ft | 13 kts | 359° |
| 2026-04-26 11:09 | 41.26757 | 28.74019 | 297 ft | 14 kts | 359° |
| 2026-04-26 11:09 | 41.26865 | 28.74019 | 297 ft | 16 kts | 1° |
| 2026-04-26 11:09 | 41.26982 | 28.74019 | 296 ft | 15 kts | 357° |
| 2026-04-26 11:09 | 41.27042 | 28.73917 | 295 ft | 16 kts | 266° |
| 2026-04-26 11:10 | 41.27038 | 28.73761 | 295 ft | 17 kts | 269° |
| 2026-04-26 11:10 | 41.27037 | 28.73593 | 295 ft | 18 kts | 270° |
| 2026-04-26 11:10 | 41.27037 | 28.73421 | 295 ft | 19 kts | 267° |
| 2026-04-26 11:10 | 41.27032 | 28.73242 | 295 ft | 18 kts | 269° |
| 2026-04-26 11:11 | 41.27082 | 28.73101 | 295 ft | 18 kts | 348° |
| 2026-04-26 11:11 | 41.27219 | 28.73101 | 291 ft | 21 kts | 0° |
| 2026-04-26 11:11 | 41.27380 | 28.73102 | 284 ft | 24 kts | 0° |
| 2026-04-26 11:11 | 41.27517 | 28.73094 | 277 ft | 17 kts | 358° |
| 2026-04-26 11:12 | 41.27566 | 28.73085 | 276 ft | 4 kts | 328° |
| 2026-04-26 11:12 | 41.27599 | 28.73041 | 276 ft | 11 kts | 311° |
| 2026-04-26 11:12 | 41.27679 | 28.72976 | 273 ft | 15 kts | 355° |
| 2026-04-26 11:12 | 41.27796 | 28.72972 | 269 ft | 18 kts | 358° |
| 2026-04-26 11:13 | 41.27934 | 28.72971 | 265 ft | 20 kts | 358° |
| 2026-04-26 11:13 | 41.28080 | 28.72972 | 261 ft | 21 kts | 358° |
| 2026-04-26 11:13 | 41.28237 | 28.72965 | 257 ft | 23 kts | 358° |
| 2026-04-26 11:13 | 41.28402 | 28.72962 | 253 ft | 24 kts | 0° |
| 2026-04-26 11:14 | 41.28574 | 28.72959 | 248 ft | 25 kts | 359° |
| 2026-04-26 11:14 | 41.28756 | 28.72956 | 243 ft | 26 kts | 359° |
| 2026-04-26 11:14 | 41.28941 | 28.72951 | 238 ft | 27 kts | 1° |
| 2026-04-26 11:14 | 41.29134 | 28.72951 | 233 ft | 27 kts | 359° |
| 2026-04-26 11:15 | 41.29318 | 28.72947 | 228 ft | 20 kts | 357° |
| 2026-04-26 11:15 | 41.29436 | 28.72940 | 225 ft | 12 kts | 356° |
| 2026-04-26 11:15 | 41.29485 | 28.72876 | 224 ft | 6 kts | 280° |
| 2026-04-26 11:15 | 41.29487 | 28.72836 | 224 ft | 6 kts | 271° |
| 2026-04-26 11:16 | 41.29486 | 28.72740 | 224 ft | 13 kts | 268° |
| 2026-04-26 11:16 | 41.29482 | 28.72585 | 224 ft | 19 kts | 270° |
| 2026-04-26 11:16 | 41.29482 | 28.72551 | 224 ft | 2 kts | 269° |
| 2026-04-26 11:16 | 41.29479 | 28.72505 | 224 ft | 7 kts | 247° |
| 2026-04-26 11:17 | 41.29407 | 28.72463 | 225 ft | 16 kts | 178° |
| 2026-04-26 11:17 | 41.29130 | 28.72464 | 233 ft | 73 kts | 180° |
| 2026-04-26 11:17 | 41.28400 | 28.72480 | 253 ft | 132 kts | 181° |
| 2026-04-26 11:17 | 41.27336 | 28.72502 | 406 ft | 166 kts | 180° |
| 2026-04-26 11:18 | 41.26161 | 28.72575 | 964 ft | 172 kts | 178° |
| 2026-04-26 11:18 | 41.24955 | 28.72690 | 1566 ft | 178 kts | 176° |
| 2026-04-26 11:18 | 41.23695 | 28.72809 | 2071 ft | 188 kts | 179° |
| 2026-04-26 11:18 | 41.22325 | 28.72850 | 2468 ft | 204 kts | 180° |
| 2026-04-26 11:19 | 41.20853 | 28.72832 | 2854 ft | 220 kts | 189° |
| 2026-04-26 11:19 | 41.19370 | 28.72026 | 3149 ft | 240 kts | 220° |
| 2026-04-26 11:19 | 41.18323 | 28.70250 | 3628 ft | 251 kts | 249° |
| 2026-04-26 11:19 | 41.18023 | 28.67938 | 4196 ft | 260 kts | 271° |
| 2026-04-26 11:20 | 41.18044 | 28.65500 | 4951 ft | 265 kts | 271° |
| 2026-04-26 11:20 | 41.18041 | 28.63080 | 5782 ft | 265 kts | 271° |
| 2026-04-26 11:20 | 41.18034 | 28.60629 | 6616 ft | 266 kts | 274° |
| 2026-04-26 11:20 | 41.18496 | 28.58250 | 7364 ft | 268 kts | 299° |
| 2026-04-26 11:21 | 41.19739 | 28.56387 | 8116 ft | 271 kts | 323° |
| 2026-04-26 11:21 | 41.21493 | 28.55334 | 8845 ft | 276 kts | 340° |
| 2026-04-26 11:21 | 41.23249 | 28.54330 | 9508 ft | 277 kts | 321° |
| 2026-04-26 11:21 | 41.24558 | 28.52480 | 10194 ft | 277 kts | 306° |
| 2026-04-26 11:22 | 41.25624 | 28.50334 | 10688 ft | 288 kts | 302° |
| 2026-04-26 11:22 | 41.26748 | 28.48037 | 11134 ft | 299 kts | 304° |
| 2026-04-26 11:22 | 41.27953 | 28.45791 | 11768 ft | 303 kts | 308° |
| 2026-04-26 11:22 | 41.29282 | 28.43620 | 12436 ft | 305 kts | 310° |
| 2026-04-26 11:23 | 41.30650 | 28.41488 | 13059 ft | 308 kts | 311° |
| 2026-04-26 11:23 | 41.32041 | 28.39331 | 13666 ft | 310 kts | 311° |
| 2026-04-26 11:23 | 41.33449 | 28.37146 | 14265 ft | 313 kts | 311° |
| 2026-04-26 11:23 | 41.34873 | 28.34938 | 14851 ft | 316 kts | 310° |
| 2026-04-26 11:24 | 41.36300 | 28.32719 | 15430 ft | 319 kts | 310° |
| 2026-04-26 11:24 | 41.37751 | 28.30463 | 16043 ft | 322 kts | 310° |
| 2026-04-26 11:24 | 41.39202 | 28.28204 | 16595 ft | 325 kts | 310° |
| 2026-04-26 11:24 | 41.40673 | 28.25914 | 17145 ft | 327 kts | 310° |
| 2026-04-26 11:25 | 41.42152 | 28.23609 | 17656 ft | 331 kts | 310° |
| 2026-04-26 11:25 | 41.43655 | 28.21266 | 18164 ft | 334 kts | 310° |
| 2026-04-26 11:25 | 41.45168 | 28.18908 | 18680 ft | 336 kts | 310° |
| 2026-04-26 11:25 | 41.46690 | 28.16533 | 19160 ft | 339 kts | 310° |
| 2026-04-26 11:26 | 41.48221 | 28.14141 | 19642 ft | 342 kts | 310° |
| 2026-04-26 11:26 | 41.49750 | 28.11748 | 20116 ft | 344 kts | 310° |
| 2026-04-26 11:26 | 41.51313 | 28.09303 | 20594 ft | 346 kts | 310° |
| 2026-04-26 11:26 | 41.52868 | 28.06870 | 21060 ft | 348 kts | 310° |
| 2026-04-26 11:27 | 41.54427 | 28.04428 | 21512 ft | 350 kts | 310° |
| 2026-04-26 11:27 | 41.56010 | 28.01944 | 21965 ft | 352 kts | 310° |
| 2026-04-26 11:27 | 41.57608 | 27.99435 | 22405 ft | 355 kts | 310° |
| 2026-04-26 11:27 | 41.59189 | 27.96949 | 22828 ft | 357 kts | 310° |
| 2026-04-26 11:28 | 41.60799 | 27.94421 | 23251 ft | 359 kts | 310° |
| 2026-04-26 11:28 | 41.62407 | 27.91891 | 23667 ft | 360 kts | 310° |
| 2026-04-26 11:28 | 41.64070 | 27.89270 | 24082 ft | 363 kts | 310° |
| 2026-04-26 11:28 | 41.65725 | 27.86660 | 24495 ft | 364 kts | 310° |
| 2026-04-26 11:29 | 41.67370 | 27.84064 | 24895 ft | 366 kts | 310° |
| 2026-04-26 11:29 | 41.69038 | 27.81432 | 25294 ft | 368 kts | 310° |
| 2026-04-26 11:29 | 41.70705 | 27.78801 | 25664 ft | 370 kts | 310° |
| 2026-04-26 11:29 | 41.72368 | 27.76171 | 26016 ft | 372 kts | 310° |
| 2026-04-26 11:30 | 41.74067 | 27.73484 | 26366 ft | 374 kts | 310° |
| 2026-04-26 11:30 | 41.75213 | 27.71668 | 26604 ft | 375 kts | 310° |
| 2026-04-26 11:30 | 41.77468 | 27.68091 | 27062 ft | 377 kts | 310° |
| 2026-04-26 11:30 | 41.79178 | 27.65377 | 27398 ft | 379 kts | 310° |
| 2026-04-26 11:31 | 41.80879 | 27.62671 | 27725 ft | 381 kts | 310° |
| 2026-04-26 11:31 | 41.82578 | 27.59966 | 28048 ft | 383 kts | 310° |
| 2026-04-26 11:31 | 41.84318 | 27.57192 | 28370 ft | 385 kts | 310° |
| 2026-04-26 11:31 | 41.86076 | 27.54390 | 28702 ft | 386 kts | 310° |
| 2026-04-26 11:32 | 41.87807 | 27.51627 | 29011 ft | 388 kts | 310° |
| 2026-04-26 11:32 | 41.89545 | 27.48857 | 29322 ft | 389 kts | 310° |
| 2026-04-26 11:32 | 41.91324 | 27.46029 | 29641 ft | 391 kts | 310° |
| 2026-04-26 11:32 | 41.93103 | 27.43195 | 29950 ft | 392 kts | 310° |
| 2026-04-26 11:33 | 41.94874 | 27.40368 | 30242 ft | 394 kts | 310° |
| 2026-04-26 11:33 | 41.96632 | 27.37558 | 30526 ft | 395 kts | 310° |
| 2026-04-26 11:33 | 41.98403 | 27.34722 | 30814 ft | 396 kts | 309° |
| 2026-04-26 11:33 | 42.00156 | 27.31913 | 31082 ft | 398 kts | 309° |
| 2026-04-26 11:34 | 42.01890 | 27.28984 | 31347 ft | 400 kts | 305° |
| 2026-04-26 11:34 | 42.03399 | 27.25822 | 31606 ft | 401 kts | 300° |
| 2026-04-26 11:34 | 42.04636 | 27.22513 | 31866 ft | 403 kts | 294° |
| 2026-04-26 11:34 | 42.05626 | 27.18986 | 32118 ft | 404 kts | 288° |
| 2026-04-26 11:35 | 42.06340 | 27.15307 | 32359 ft | 407 kts | 283° |
| 2026-04-26 11:35 | 42.06757 | 27.11585 | 32602 ft | 409 kts | 277° |
| 2026-04-26 11:35 | 42.06925 | 27.07769 | 32864 ft | 410 kts | 274° |
| 2026-04-26 11:35 | 42.07028 | 27.03925 | 33108 ft | 411 kts | 274° |
| 2026-04-26 11:36 | 42.07120 | 27.00078 | 33337 ft | 412 kts | 274° |
| 2026-04-26 11:36 | 42.07211 | 26.96245 | 33562 ft | 413 kts | 274° |
| 2026-04-26 11:36 | 42.07302 | 26.92363 | 33784 ft | 415 kts | 274° |
| 2026-04-26 11:36 | 42.07392 | 26.88529 | 34056 ft | 414 kts | 274° |
| 2026-04-26 11:37 | 42.07481 | 26.84699 | 34345 ft | 413 kts | 274° |
| 2026-04-26 11:37 | 42.07571 | 26.80802 | 34605 ft | 414 kts | 274° |
| 2026-04-26 11:37 | 42.07660 | 26.76932 | 34815 ft | 415 kts | 274° |
| 2026-04-26 11:37 | 42.07748 | 26.73072 | 35016 ft | 416 kts | 274° |
| 2026-04-26 11:38 | 42.07836 | 26.69198 | 35242 ft | 416 kts | 274° |
| 2026-04-26 11:38 | 42.07922 | 26.65327 | 35463 ft | 417 kts | 274° |
| 2026-04-26 11:38 | 42.08007 | 26.61429 | 35673 ft | 417 kts | 274° |
| 2026-04-26 11:38 | 42.08091 | 26.57551 | 35866 ft | 417 kts | 274° |
| 2026-04-26 11:39 | 42.08254 | 26.49775 | 35960 ft | 418 kts | 274° |
| 2026-04-26 11:39 | 42.08411 | 26.41989 | 35971 ft | 417 kts | 274° |
| 2026-04-26 11:40 | 42.08562 | 26.34224 | 35981 ft | 416 kts | 273° |
| 2026-04-26 11:40 | 42.08708 | 26.26478 | 35988 ft | 416 kts | 273° |
| 2026-04-26 11:42 | 42.09243 | 25.95423 | 35975 ft | 415 kts | 273° |
| 2026-04-26 11:43 | 42.09364 | 25.87693 | 35970 ft | 415 kts | 273° |
| 2026-04-26 11:43 | 42.09480 | 25.79859 | 35967 ft | 415 kts | 273° |
| 2026-04-26 11:44 | 42.09592 | 25.72107 | 35968 ft | 414 kts | 273° |
| 2026-04-26 11:44 | 42.09697 | 25.64364 | 35967 ft | 414 kts | 273° |
| 2026-04-26 11:45 | 42.09795 | 25.56656 | 35963 ft | 414 kts | 273° |
| 2026-04-26 11:45 | 42.09889 | 25.48932 | 35969 ft | 414 kts | 273° |
| 2026-04-26 11:46 | 42.09977 | 25.41248 | 35968 ft | 413 kts | 273° |
| 2026-04-26 11:46 | 42.10061 | 25.33499 | 35975 ft | 413 kts | 272° |
| 2026-04-26 11:47 | 42.10140 | 25.25776 | 35971 ft | 412 kts | 272° |
| 2026-04-26 11:47 | 42.10214 | 25.18110 | 35975 ft | 412 kts | 272° |
| 2026-04-26 11:48 | 42.10282 | 25.10417 | 35975 ft | 411 kts | 272° |
| 2026-04-26 11:48 | 42.10344 | 25.02777 | 35973 ft | 411 kts | 272° |
| 2026-04-26 11:49 | 42.10400 | 24.95052 | 35983 ft | 411 kts | 272° |
| 2026-04-26 11:49 | 42.10453 | 24.87387 | 35997 ft | 411 kts | 272° |
| 2026-04-26 11:50 | 42.10501 | 24.79726 | 36011 ft | 411 kts | 272° |
| 2026-04-26 11:50 | 42.10544 | 24.72098 | 36024 ft | 412 kts | 272° |
| 2026-04-26 11:51 | 42.10581 | 24.64394 | 36027 ft | 411 kts | 272° |
| 2026-04-26 11:51 | 42.10612 | 24.56695 | 36038 ft | 411 kts | 273° |
| 2026-04-26 11:52 | 42.10638 | 24.49039 | 36042 ft | 410 kts | 273° |
| 2026-04-26 11:52 | 42.10661 | 24.41402 | 36045 ft | 410 kts | 273° |
| 2026-04-26 11:53 | 42.10677 | 24.33772 | 36052 ft | 409 kts | 272° |
| 2026-04-26 11:54 | 42.10694 | 24.22285 | 36058 ft | 410 kts | 272° |
| 2026-04-26 11:54 | 42.10698 | 24.14572 | 36067 ft | 410 kts | 272° |
| 2026-04-26 11:55 | 42.10696 | 24.06807 | 36066 ft | 410 kts | 272° |
| 2026-04-26 11:55 | 42.10690 | 23.99106 | 36080 ft | 411 kts | 272° |
| 2026-04-26 11:56 | 42.10678 | 23.91369 | 36088 ft | 411 kts | 272° |
| 2026-04-26 11:56 | 42.10663 | 23.83675 | 36092 ft | 410 kts | 272° |
| 2026-04-26 11:57 | 42.10641 | 23.75924 | 36090 ft | 410 kts | 272° |
| 2026-04-26 11:57 | 42.10612 | 23.68203 | 36095 ft | 410 kts | 272° |
| 2026-04-26 11:58 | 42.10578 | 23.60437 | 36092 ft | 410 kts | 272° |
| 2026-04-26 11:58 | 42.10540 | 23.52680 | 35729 ft | 412 kts | 272° |
| 2026-04-26 11:58 | 42.10519 | 23.48802 | 35114 ft | 410 kts | 272° |
| 2026-04-26 11:59 | 42.10498 | 23.44955 | 34086 ft | 417 kts | 272° |
| 2026-04-26 11:59 | 42.10476 | 23.41072 | 33055 ft | 424 kts | 272° |
| 2026-04-26 11:59 | 42.10451 | 23.37134 | 32418 ft | 420 kts | 272° |
| 2026-04-26 11:59 | 42.10423 | 23.33232 | 31908 ft | 415 kts | 271° |
| 2026-04-26 12:00 | 42.10393 | 23.29368 | 31365 ft | 411 kts | 272° |
| 2026-04-26 12:00 | 42.10363 | 23.25539 | 30796 ft | 407 kts | 272° |
| 2026-04-26 12:00 | 42.10334 | 23.21754 | 30224 ft | 404 kts | 272° |
| 2026-04-26 12:00 | 42.10304 | 23.18044 | 29686 ft | 400 kts | 272° |
| 2026-04-26 12:01 | 42.10272 | 23.14288 | 29131 ft | 397 kts | 272° |
| 2026-04-26 12:01 | 42.10240 | 23.10637 | 28585 ft | 394 kts | 272° |
| 2026-04-26 12:01 | 42.10206 | 23.06952 | 28027 ft | 391 kts | 272° |
| 2026-04-26 12:01 | 42.10174 | 23.03340 | 27477 ft | 388 kts | 272° |
| 2026-04-26 12:02 | 42.10140 | 22.99734 | 26936 ft | 385 kts | 272° |
| 2026-04-26 12:02 | 42.10106 | 22.96136 | 26384 ft | 383 kts | 272° |
| 2026-04-26 12:02 | 42.10071 | 22.92599 | 25863 ft | 379 kts | 272° |
| 2026-04-26 12:02 | 42.10033 | 22.89105 | 25340 ft | 377 kts | 272° |
| 2026-04-26 12:03 | 42.09994 | 22.85521 | 24775 ft | 374 kts | 271° |
| 2026-04-26 12:03 | 42.09954 | 22.82020 | 24218 ft | 372 kts | 271° |
| 2026-04-26 12:03 | 42.09913 | 22.78493 | 23668 ft | 370 kts | 271° |
| 2026-04-26 12:03 | 42.09872 | 22.75060 | 23123 ft | 367 kts | 271° |
| 2026-04-26 12:04 | 42.09829 | 22.71595 | 22578 ft | 364 kts | 271° |
| 2026-04-26 12:04 | 42.09786 | 22.68175 | 22061 ft | 362 kts | 272° |
| 2026-04-26 12:04 | 42.09742 | 22.64822 | 21527 ft | 360 kts | 271° |
| 2026-04-26 12:04 | 42.09513 | 22.61505 | 20972 ft | 361 kts | 260° |
| 2026-04-26 12:05 | 42.08605 | 22.58358 | 20443 ft | 365 kts | 244° |
| 2026-04-26 12:05 | 42.07259 | 22.55476 | 19966 ft | 363 kts | 241° |
| 2026-04-26 12:05 | 42.05877 | 22.52651 | 19450 ft | 362 kts | 240° |
| 2026-04-26 12:05 | 42.04508 | 22.49854 | 18950 ft | 360 kts | 240° |
| 2026-04-26 12:06 | 42.03132 | 22.47030 | 18449 ft | 358 kts | 240° |
| 2026-04-26 12:06 | 42.01783 | 22.44255 | 17957 ft | 355 kts | 240° |
| 2026-04-26 12:06 | 42.00436 | 22.41485 | 17468 ft | 353 kts | 241° |
| 2026-04-26 12:06 | 41.99086 | 22.38707 | 16976 ft | 351 kts | 241° |
| 2026-04-26 12:07 | 41.97768 | 22.35990 | 16465 ft | 350 kts | 241° |
| 2026-04-26 12:07 | 41.96432 | 22.33229 | 15948 ft | 349 kts | 240° |
| 2026-04-26 12:07 | 41.95132 | 22.30542 | 15447 ft | 348 kts | 240° |
| 2026-04-26 12:07 | 41.93823 | 22.27828 | 14937 ft | 347 kts | 240° |
| 2026-04-26 12:08 | 41.92507 | 22.25100 | 14425 ft | 346 kts | 240° |
| 2026-04-26 12:08 | 41.91210 | 22.22406 | 13928 ft | 345 kts | 240° |
| 2026-04-26 12:08 | 41.89918 | 22.19717 | 13431 ft | 344 kts | 240° |
| 2026-04-26 12:08 | 41.88618 | 22.17012 | 12931 ft | 337 kts | 240° |
| 2026-04-26 12:09 | 41.87361 | 22.14393 | 12438 ft | 329 kts | 240° |
| 2026-04-26 12:09 | 41.86148 | 22.11856 | 11946 ft | 322 kts | 240° |
| 2026-04-26 12:09 | 41.84945 | 22.09336 | 11449 ft | 321 kts | 240° |
| 2026-04-26 12:09 | 41.83751 | 22.06830 | 10950 ft | 319 kts | 240° |
| 2026-04-26 12:10 | 41.82560 | 22.04321 | 10448 ft | 314 kts | 240° |
| 2026-04-26 12:10 | 41.81403 | 22.01883 | 9951 ft | 308 kts | 240° |
| 2026-04-26 12:10 | 41.80254 | 21.99472 | 9446 ft | 302 kts | 240° |
| 2026-04-26 12:10 | 41.79138 | 21.97132 | 8949 ft | 296 kts | 240° |
| 2026-04-26 12:11 | 41.78034 | 21.94825 | 8451 ft | 292 kts | 240° |
| 2026-04-26 12:11 | 41.76916 | 21.92499 | 7942 ft | 288 kts | 240° |
| 2026-04-26 12:11 | 41.75835 | 21.90245 | 7450 ft | 286 kts | 240° |
| 2026-04-26 12:11 | 41.74759 | 21.88005 | 6936 ft | 284 kts | 240° |
| 2026-04-26 12:12 | 41.73922 | 21.85656 | 6351 ft | 278 kts | 261° |
| 2026-04-26 12:12 | 41.73893 | 21.83124 | 5797 ft | 269 kts | 284° |
| 2026-04-26 12:12 | 41.74410 | 21.80768 | 5308 ft | 262 kts | 294° |
| 2026-04-26 12:12 | 41.74843 | 21.79249 | 5054 ft | 257 kts | 295° |
| 2026-04-26 12:13 | 41.75715 | 21.76326 | 4571 ft | 252 kts | 295° |
| 2026-04-26 12:13 | 41.76369 | 21.74154 | 4209 ft | 246 kts | 295° |
| 2026-04-26 12:13 | 41.76996 | 21.72072 | 4014 ft | 234 kts | 295° |
| 2026-04-26 12:13 | 41.77570 | 21.70135 | 4027 ft | 214 kts | 297° |
| 2026-04-26 12:14 | 41.78450 | 21.68611 | 4106 ft | 207 kts | 327° |
| 2026-04-26 12:14 | 41.79761 | 21.67797 | 4018 ft | 205 kts | 343° |
| 2026-04-26 12:14 | 41.81139 | 21.67310 | 3764 ft | 204 kts | 348° |
| 2026-04-26 12:14 | 41.82529 | 21.66879 | 3471 ft | 203 kts | 349° |
| 2026-04-26 12:15 | 41.83885 | 21.66433 | 3185 ft | 203 kts | 348° |
| 2026-04-26 12:15 | 41.85250 | 21.65959 | 2898 ft | 202 kts | 347° |
| 2026-04-26 12:15 | 41.86573 | 21.65491 | 2646 ft | 189 kts | 348° |
| 2026-04-26 12:15 | 41.87816 | 21.65056 | 2355 ft | 175 kts | 348° |
| 2026-04-26 12:16 | 41.88963 | 21.64655 | 2103 ft | 161 kts | 348° |
| 2026-04-26 12:16 | 41.89995 | 21.64295 | 1862 ft | 146 kts | 349° |
| 2026-04-26 12:16 | 41.90961 | 21.63960 | 1602 ft | 141 kts | 348° |
| 2026-04-26 12:16 | 41.91901 | 21.63614 | 1402 ft | 140 kts | 348° |
| 2026-04-26 12:17 | 41.92841 | 21.63288 | 1226 ft | 139 kts | 349° |
| 2026-04-26 12:17 | 41.93777 | 21.62967 | 1043 ft | 139 kts | 348° |
| 2026-04-26 12:17 | 41.94709 | 21.62649 | 874 ft | 137 kts | 349° |
| 2026-04-26 12:17 | 41.95613 | 21.62339 | 782 ft | 120 kts | 345° |
| 2026-04-26 12:18 | 41.96129 | 21.62156 | 784 ft | 45 kts | 344° |
| 2026-04-26 12:18 | 41.96357 | 21.62081 | 786 ft | 20 kts | 346° |
| 2026-04-26 12:18 | 41.96482 | 21.62073 | 786 ft | 13 kts | 44° |
| 2026-04-26 12:18 | 41.96510 | 21.62162 | 790 ft | 7 kts | 74° |
| 2026-04-26 12:19 | 41.96520 | 21.62232 | 791 ft | 7 kts | 92° |
| 2026-04-26 12:19 | 41.96490 | 21.62290 | 792 ft | 9 kts | 150° |
| 2026-04-26 12:19 | 41.96419 | 21.62321 | 792 ft | 11 kts | 165° |
| 2026-04-26 12:19 | 41.96337 | 21.62350 | 791 ft | 12 kts | 165° |
| 2026-04-26 12:20 | 41.96246 | 21.62383 | 791 ft | 13 kts | 165° |
| 2026-04-26 12:20 | 41.96151 | 21.62417 | 790 ft | 14 kts | 165° |
| 2026-04-26 12:20 | 41.96049 | 21.62453 | 790 ft | 14 kts | 165° |
| 2026-04-26 12:20 | 41.96015 | 21.62512 | 791 ft | 5 kts | 86° |
| 2026-04-26 12:21 | 41.96023 | 21.62558 | 792 ft | 4 kts | 74° |
| 2026-04-26 12:21 | 41.96030 | 21.62590 | 793 ft | 2 kts | 75° |
| 2026-04-26 12:21 | 41.96032 | 21.62603 | 793 ft | 0 kts | 75° |